Time;durP1;ratioP1;P1;durP2;ratioP2;P2;SDS_P1;SDS_P2;PMS_P1;PMS_P2;Temp;Humidity;BMP_temperature;BMP_pressure;BME280_temperature;BME280_humidity;BME280_pressure;Samples;Min_cycle;Max_cycle;Signal;HPM_P1;HPM_P2
2022/05/16 00:01:44;;;;;;;8.98;4.45;;;13.60;99.90;;;;;;4997910;28;20092;-61
2022/05/16 00:04:09;;;;;;;11.18;4.35;;;13.10;99.90;;;;;;5014558;28;20124;-61
2022/05/16 00:06:36;;;;;;;9.32;4.43;;;13.40;99.90;;;;;;4983165;28;20050;-61
2022/05/16 00:09:02;;;;;;;9.73;4.07;;;;;;;;;;4977935;28;20054;-61
2022/05/16 00:11:28;;;;;;;9.38;4.75;;;;;;;;;;4995474;28;20113;-61
2022/05/16 00:13:54;;;;;;;8.38;4.28;;;;;;;;;;4993683;28;20046;-61
2022/05/16 00:16:20;;;;;;;10.95;4.57;;;13.40;99.90;;;;;;4994105;28;20053;-61
2022/05/16 00:18:46;;;;;;;10.23;3.92;;;;;;;;;;4994931;28;20038;-61
2022/05/16 00:21:11;;;;;;;11.73;4.57;;;13.20;99.90;;;;;;4995202;28;20165;-61
2022/05/16 00:23:37;;;;;;;7.35;3.72;;;13.40;99.90;;;;;;4995417;28;20082;-61
2022/05/16 00:26:03;;;;;;;11.75;5.03;;;13.40;99.90;;;;;;5000383;28;20046;-61
2022/05/16 00:28:29;;;;;;;9.73;3.97;;;13.20;99.90;;;;;;4993856;28;20042;-61
2022/05/16 00:30:55;;;;;;;13.68;4.35;;;13.10;99.90;;;;;;4977966;28;20042;-61
2022/05/16 00:33:20;;;;;;;10.75;4.63;;;13.10;99.90;;;;;;4995063;28;20042;-61
2022/05/16 00:35:46;;;;;;;11.38;4.63;;;13.20;99.90;;;;;;4995043;28;20049;-61
2022/05/16 00:38:11;;;;;;;13.55;4.35;;;13.30;99.90;;;;;;4994946;28;20042;-61
2022/05/16 00:40:37;;;;;;;11.23;4.53;;;13.20;99.90;;;;;;4994831;28;20062;-61
2022/05/16 00:43:06;;;;;;;9.95;4.28;;;13.10;99.90;;;;;;4993777;28;20126;-61
2022/05/16 00:45:32;;;;;;;9.98;4.13;;;;;;;;;;4966616;28;20092;-61
2022/05/16 00:47:58;;;;;;;9.75;3.65;;;13.20;99.90;;;;;;5014345;28;20113;-61
2022/05/16 00:50:25;;;;;;;10.75;4.45;;;13.20;99.90;;;;;;4996693;28;20073;-61
2022/05/16 00:52:51;;;;;;;8.38;4.32;;;13.20;99.90;;;;;;5014378;28;20099;-61
2022/05/16 00:55:22;;;;;;;11.63;4.53;;;12.90;99.90;;;;;;4996366;28;20057;-61
2022/05/16 00:57:50;;;;;;;11.18;4.47;;;12.90;99.90;;;;;;4996806;28;20037;-61
2022/05/16 01:00:20;;;;;;;12.55;4.57;;;12.90;99.90;;;;;;5012638;28;20046;-61
2022/05/16 01:05:37;;;;;;;7.88;3.75;;;;;;;;;;5014267;28;20053;-61
2022/05/16 01:08:07;;;;;;;11.48;3.63;;;12.90;99.90;;;;;;5013747;28;20083;-61
2022/05/16 01:10:33;;;;;;;15.07;4.63;;;;;;;;;;5013812;28;20042;-61
2022/05/16 01:13:00;;;;;;;14.25;4.95;;;12.90;99.90;;;;;;4996075;28;20492;-61
2022/05/16 01:15:38;;;;;;;9.57;4.25;;;12.70;99.90;;;;;;5013552;28;20056;-61
2022/05/16 01:18:08;;;;;;;12.65;4.82;;;12.90;99.90;;;;;;4996506;28;20511;-61
2022/05/16 01:20:42;;;;;;;9.75;4.53;;;12.60;99.90;;;;;;5013703;28;20045;-61
2022/05/16 01:23:08;;;;;;;11.27;4.72;;;12.80;99.90;;;;;;5013855;28;20044;-61
2022/05/16 01:25:35;;;;;;;7.93;4.53;;;12.60;99.90;;;;;;5013657;28;20046;-62
2022/05/16 01:28:04;;;;;;;9.15;3.83;;;12.80;99.90;;;;;;4996278;28;20117;-62
2022/05/16 01:30:34;;;;;;;8.18;3.70;;;12.80;99.90;;;;;;5012135;28;20519;-62
2022/05/16 01:32:59;;;;;;;10.05;4.18;;;12.60;99.90;;;;;;5013496;28;20408;-62
2022/05/16 01:35:28;;;;;;;16.27;4.35;;;12.60;99.90;;;;;;5013745;28;20037;-62
2022/05/16 01:40:38;;;;;;;14.27;4.82;;;12.40;99.90;;;;;;4995685;28;20507;-61
2022/05/16 01:43:05;;;;;;;9.35;3.85;;;12.50;99.90;;;;;;5013674;28;20070;-62
2022/05/16 01:45:31;;;;;;;10.35;4.35;;;12.40;99.90;;;;;;4995802;28;20045;-62
2022/05/16 01:47:57;;;;;;;9.82;4.18;;;12.40;99.90;;;;;;4996032;28;20515;-62
2022/05/16 01:50:22;;;;;;;9.93;4.32;;;12.60;99.90;;;;;;5013344;28;20080;-62
2022/05/16 01:52:48;;;;;;;9.18;3.80;;;12.60;99.90;;;;;;5012456;28;20042;-62
2022/05/16 01:55:14;;;;;;;12.88;3.90;;;12.50;99.90;;;;;;4995159;28;20041;-62
2022/05/16 01:57:40;;;;;;;10.02;4.10;;;12.60;99.90;;;;;;4979658;28;20084;-62
2022/05/16 02:00:09;;;;;;;10.95;3.95;;;12.60;99.90;;;;;;5012353;28;20048;-62
2022/05/16 02:02:35;;;;;;;6.32;4.28;;;12.50;99.90;;;;;;4995671;28;20485;-62
2022/05/16 02:05:01;;;;;;;12.40;4.35;;;12.40;99.90;;;;;;4995381;28;20041;-62
2022/05/16 02:07:27;;;;;;;10.27;4.38;;;;;;;;;;5013201;28;20060;-62
2022/05/16 02:09:54;;;;;;;9.35;4.28;;;;;;;;;;5013149;28;20050;-62
2022/05/16 02:12:20;;;;;;;9.98;4.07;;;12.40;99.90;;;;;;4995338;28;20057;-62
2022/05/16 02:14:46;;;;;;;10.48;4.60;;;12.40;99.90;;;;;;5012798;28;20512;-61
2022/05/16 02:17:12;;;;;;;6.82;4.35;;;12.40;99.90;;;;;;5011602;28;20060;-62
2022/05/16 02:19:38;;;;;;;13.13;3.88;;;;;;;;;;5011940;28;20037;-62
2022/05/16 02:24:48;;;;;;;9.45;4.00;;;12.30;99.90;;;;;;4995244;28;20042;-62
2022/05/16 02:27:19;;;;;;;10.68;4.03;;;12.40;99.90;;;;;;5013184;28;20168;-62
2022/05/16 02:29:45;;;;;;;10.40;4.40;;;12.40;99.90;;;;;;5011485;28;20049;-62
2022/05/16 02:32:12;;;;;;;7.90;3.85;;;12.20;99.90;;;;;;5011549;28;20042;-62
2022/05/16 02:34:38;;;;;;;11.93;3.92;;;;;;;;;;5013109;28;20049;-62
2022/05/16 02:37:05;;;;;;;7.63;3.55;;;12.10;99.90;;;;;;4995213;28;20042;-62
2022/05/16 02:39:32;;;;;;;10.50;4.03;;;12.00;99.90;;;;;;5012948;28;20132;-62
2022/05/16 02:41:57;;;;;;;10.10;4.50;;;12.20;99.90;;;;;;5011720;28;20041;-62
2022/05/16 02:44:23;;;;;;;7.47;4.10;;;11.90;99.90;;;;;;5012683;28;20038;-62
2022/05/16 02:46:49;;;;;;;6.10;3.35;;;11.90;99.90;;;;;;4995338;28;20129;-62
2022/05/16 02:49:15;;;;;;;11.32;3.92;;;;;;;;;;5013012;28;20038;-62
2022/05/16 02:51:40;;;;;;;9.05;3.90;;;11.90;99.90;;;;;;5012967;28;20120;-62
2022/05/16 02:54:06;;;;;;;9.90;4.60;;;11.70;99.90;;;;;;5012756;28;20448;-63
2022/05/16 02:56:32;;;;;;;8.30;4.03;;;11.80;99.90;;;;;;5012579;28;20038;-62
2022/05/16 02:58:58;;;;;;;5.88;4.15;;;;;;;;;;4994918;28;20389;-62
2022/05/16 03:01:24;;;;;;;11.02;3.85;;;11.80;99.90;;;;;;4995261;28;20068;-62
2022/05/16 03:03:50;;;;;;;11.70;4.68;;;11.80;99.90;;;;;;5012822;28;20540;-62
2022/05/16 03:06:16;;;;;;;10.05;3.60;;;11.90;99.90;;;;;;5011713;28;20049;-62
2022/05/16 03:08:42;;;;;;;8.02;3.88;;;11.90;99.90;;;;;;5015740;28;20038;-62
2022/05/16 03:11:08;;;;;;;9.07;4.13;;;11.80;99.90;;;;;;4998586;28;20444;-62
2022/05/16 03:13:34;;;;;;;9.50;3.70;;;;;;;;;;4998132;28;20507;-62
2022/05/16 03:16:01;;;;;;;8.20;3.55;;;11.70;99.90;;;;;;5015557;28;20054;-62
2022/05/16 03:18:31;;;;;;;9.18;3.65;;;11.70;99.90;;;;;;5016100;28;20034;-62
2022/05/16 03:20:57;;;;;;;8.38;3.63;;;11.50;99.90;;;;;;4998646;28;20038;-62
2022/05/16 03:23:23;;;;;;;9.77;3.60;;;11.60;99.90;;;;;;4998244;28;20403;-62
2022/05/16 03:25:49;;;;;;;8.02;3.33;;;11.70;99.90;;;;;;5015962;28;20045;-62
2022/05/16 03:28:15;;;;;;;11.25;3.78;;;11.70;99.90;;;;;;4998082;28;20049;-62
2022/05/16 03:30:42;;;;;;;8.57;3.85;;;11.60;99.90;;;;;;5014875;28;20048;-62
2022/05/16 03:33:08;;;;;;;7.40;3.72;;;11.50;99.90;;;;;;5015665;28;20053;-62
2022/05/16 03:35:34;;;;;;;7.10;3.40;;;11.70;99.90;;;;;;5015491;28;20050;-62
2022/05/16 03:38:00;;;;;;;7.97;3.58;;;;;;;;;;5014507;28;20060;-62
2022/05/16 03:40:45;;;;;;;9.10;4.03;;;11.70;99.90;;;;;;5015415;28;20045;-62
2022/05/16 03:43:12;;;;;;;8.80;4.32;;;11.60;99.90;;;;;;5000747;28;20100;-62
2022/05/16 03:46:30;;;;;;;13.80;3.80;;;11.70;99.90;;;;;;4998876;28;20038;-62
2022/05/16 03:48:56;;;;;;;11.90;3.70;;;11.50;99.90;;;;;;5017520;28;20042;-61
2022/05/16 03:51:22;;;;;;;8.45;3.95;;;11.60;99.90;;;;;;5015697;28;20034;-62
2022/05/16 03:53:47;;;;;;;9.85;3.72;;;11.60;99.90;;;;;;5014518;28;20069;-62
2022/05/16 03:56:25;;;;;;;7.43;3.47;;;11.90;99.90;;;;;;4997557;28;20050;-62
2022/05/16 03:58:51;;;;;;;7.07;3.30;;;11.80;99.90;;;;;;5015518;28;20085;-62
2022/05/16 04:01:18;;;;;;;9.98;4.03;;;11.90;99.90;;;;;;4997801;28;20072;-62
2022/05/16 04:03:45;;;;;;;10.43;3.42;;;11.80;99.90;;;;;;4997455;28;20444;-62
2022/05/16 04:06:11;;;;;;;6.57;3.30;;;11.70;99.90;;;;;;4997523;28;20045;-62
2022/05/16 04:08:37;;;;;;;5.63;3.70;;;11.90;99.90;;;;;;5015297;28;20077;-62
2022/05/16 04:11:03;;;;;;;9.68;3.85;;;12.00;99.90;;;;;;5014867;28;20080;-62
2022/05/16 04:13:28;;;;;;;8.32;3.65;;;12.00;99.90;;;;;;5013608;28;20049;-62
2022/05/16 04:15:54;;;;;;;11.10;3.42;;;12.00;99.90;;;;;;5014821;28;20050;-62
2022/05/16 04:18:20;;;;;;;10.77;3.60;;;12.10;99.90;;;;;;4997077;28;20073;-62
2022/05/16 04:20:46;;;;;;;9.75;4.07;;;;;;;;;;5012432;28;20058;-62
2022/05/16 04:23:13;;;;;;;6.57;3.75;;;11.90;99.90;;;;;;4993307;28;20441;-62
2022/05/16 04:25:38;;;;;;;11.00;3.90;;;11.90;99.90;;;;;;4977455;28;20408;-62
2022/05/16 04:28:05;;;;;;;7.38;3.30;;;12.00;99.90;;;;;;4995335;28;20046;-61
2022/05/16 04:30:31;;;;;;;8.90;3.25;;;12.10;99.90;;;;;;4981335;28;20038;-62
2022/05/16 04:32:57;;;;;;;14.20;3.40;;;12.20;99.90;;;;;;5010638;28;20034;-61
2022/05/16 04:35:23;;;;;;;8.82;3.60;;;11.90;99.90;;;;;;5014622;28;20046;-61
2022/05/16 04:37:48;;;;;;;11.27;4.05;;;12.70;99.90;;;;;;5014724;28;20175;-62
2022/05/16 04:40:14;;;;;;;8.05;3.05;;;12.80;99.90;;;;;;5014512;28;20038;-62
2022/05/16 04:42:40;;;;;;;8.38;3.83;;;13.00;99.90;;;;;;4980690;28;20172;-61
2022/05/16 04:45:09;;;;;;;10.07;3.72;;;12.90;99.90;;;;;;5014298;28;20058;-62
2022/05/16 04:47:35;;;;;;;10.40;3.90;;;;;;;;;;5014273;28;20151;-62
2022/05/16 04:50:01;;;;;;;9.32;3.22;;;12.80;99.90;;;;;;4996289;28;20065;-62
2022/05/16 04:52:28;;;;;;;10.80;4.18;;;12.80;99.90;;;;;;5014353;28;20038;-62
2022/05/16 04:54:54;;;;;;;9.43;3.55;;;12.70;99.90;;;;;;4996612;28;20064;-62
2022/05/16 04:57:20;;;;;;;8.77;3.75;;;12.50;99.90;;;;;;4996343;28;20217;-62
2022/05/16 04:59:47;;;;;;;7.65;3.33;;;;;;;;;;4996159;28;20547;-62
2022/05/16 05:02:15;;;;;;;10.82;3.53;;;12.80;99.90;;;;;;5013593;28;20084;-62
2022/05/16 05:04:40;;;;;;;7.35;3.47;;;12.90;99.90;;;;;;5007855;28;20145;-62
2022/05/16 05:07:06;;;;;;;11.52;3.67;;;13.20;99.90;;;;;;4998459;28;20061;-62
2022/05/16 05:14:31;;;;;;;7.53;3.08;;;13.40;99.90;;;;;;4993131;28;20043;-62
2022/05/16 05:15:01;;;;;;;7.63;3.22;;;13.60;99.90;;;;;;4991774;28;19921;-62
2022/05/16 05:17:27;;;;;;;13.60;3.63;;;13.60;99.90;;;;;;5013742;28;20500;-62
2022/05/16 05:19:53;;;;;;;8.55;3.47;;;13.50;99.90;;;;;;5012295;28;20507;-62
2022/05/16 05:22:18;;;;;;;8.10;3.53;;;13.40;99.90;;;;;;5009014;28;20052;-62
2022/05/16 05:24:44;;;;;;;5.32;2.67;;;;;;;;;;5008763;28;20124;-63
2022/05/16 05:27:10;;;;;;;6.85;3.00;;;;;;;;;;5009632;28;20053;-62
2022/05/16 05:29:36;;;;;;;7.93;2.63;;;;;;;;;;5007889;28;20057;-62
2022/05/16 05:32:03;;;;;;;11.82;3.20;;;;;;;;;;4993303;28;20440;-62
2022/05/16 05:34:29;;;;;;;9.45;3.38;;;14.30;99.90;;;;;;5003773;28;20057;-63
2022/05/16 05:36:56;;;;;;;7.93;3.15;;;14.80;99.90;;;;;;5007847;28;20404;-62
2022/05/16 05:39:21;;;;;;;5.68;2.65;;;14.80;99.90;;;;;;4987986;28;20097;-62
2022/05/16 05:41:47;;;;;;;8.52;2.65;;;14.90;99.90;;;;;;4998565;28;20562;-62
2022/05/16 05:44:12;;;;;;;5.47;2.35;;;15.30;99.90;;;;;;4984064;28;20088;-62
2022/05/16 05:46:40;;;;;;;9.00;2.90;;;15.60;99.90;;;;;;4966919;28;20138;-62
2022/05/16 05:49:06;;;;;;;8.23;2.47;;;15.70;99.90;;;;;;5001616;28;20143;-62
2022/05/16 05:51:32;;;;;;;7.80;2.50;;;16.00;99.90;;;;;;5003768;28;20124;-63
2022/05/16 05:53:58;;;;;;;6.00;2.47;;;16.00;99.90;;;;;;4985957;28;20559;-63
2022/05/16 05:56:24;;;;;;;8.63;2.90;;;16.10;99.90;;;;;;4988793;28;20228;-63
2022/05/16 05:58:50;;;;;;;14.48;3.28;;;16.10;99.90;;;;;;5010443;28;20156;-62
2022/05/16 06:01:15;;;;;;;6.97;2.50;;;16.40;99.90;;;;;;5004856;28;20588;-63
2022/05/16 06:03:41;;;;;;;9.45;2.58;;;16.40;99.90;;;;;;5009053;28;20124;-62
2022/05/16 06:06:07;;;;;;;7.55;2.72;;;16.30;99.90;;;;;;5010144;28;20037;-63
2022/05/16 06:08:32;;;;;;;9.55;2.25;;;16.70;99.90;;;;;;5010521;28;20535;-63
2022/05/16 06:10:58;;;;;;;11.38;3.22;;;16.50;99.90;;;;;;5009551;28;20050;-63
2022/05/16 06:13:24;;;;;;;6.65;2.80;;;17.10;99.90;;;;;;5009172;28;20042;-62
2022/05/16 06:15:49;;;;;;;9.15;2.92;;;17.20;99.90;;;;;;5009316;28;20050;-63
2022/05/16 06:18:15;;;;;;;7.15;2.85;;;17.40;99.90;;;;;;4992359;28;20145;-62
2022/05/16 06:20:40;;;;;;;23.08;2.90;;;17.80;99.90;;;;;;4975969;28;20057;-63
2022/05/16 06:23:07;;;;;;;6.65;2.38;;;17.90;99.90;;;;;;5007864;28;20038;-63
2022/05/16 06:25:39;;;;;;;6.43;2.42;;;17.80;99.90;;;;;;5010770;28;20049;-63
2022/05/16 06:28:11;;;;;;;23.50;3.63;;;18.10;99.90;;;;;;4989678;28;20104;-63
2022/05/16 06:30:41;;;;;;;6.95;2.33;;;18.10;99.90;;;;;;5007160;28;20073;-63
2022/05/16 06:33:07;;;;;;;7.93;2.65;;;17.80;99.90;;;;;;4992500;28;20373;-63
2022/05/16 06:35:34;;;;;;;9.43;2.55;;;17.80;99.90;;;;;;5008197;28;20056;-63
2022/05/16 06:38:08;;;;;;;6.70;2.65;;;17.80;99.90;;;;;;5009451;28;20072;-63
2022/05/16 06:40:35;;;;;;;10.55;2.67;;;18.00;99.90;;;;;;5010093;28;20042;-63
2022/05/16 06:43:00;;;;;;;8.98;2.65;;;18.30;99.90;;;;;;4994421;28;20149;-62
2022/05/16 06:45:26;;;;;;;10.45;3.13;;;17.90;99.90;;;;;;4995900;28;20054;-62
2022/05/16 06:47:51;;;;;;;7.85;2.78;;;18.10;99.90;;;;;;4995450;28;20046;-63
2022/05/16 06:50:17;;;;;;;6.90;2.75;;;18.50;99.90;;;;;;5013396;28;20041;-63
2022/05/16 06:52:43;;;;;;;10.32;2.53;;;18.30;99.90;;;;;;5012250;28;20045;-63
2022/05/16 06:55:09;;;;;;;10.27;2.33;;;18.10;99.90;;;;;;5012355;28;20447;-63
2022/05/16 06:57:36;;;;;;;9.55;2.60;;;18.00;99.90;;;;;;4994665;28;20488;-63
2022/05/16 07:00:04;;;;;;;10.60;2.60;;;18.10;99.90;;;;;;5010194;28;20038;-63
2022/05/16 07:02:30;;;;;;;8.05;3.00;;;18.20;99.90;;;;;;4997584;28;20468;-63
2022/05/16 07:04:57;;;;;;;8.63;2.58;;;18.20;99.90;;;;;;5012759;28;20042;-63
2022/05/16 07:07:22;;;;;;;12.55;3.38;;;18.20;99.90;;;;;;5008238;28;20082;-62
2022/05/16 07:09:48;;;;;;;6.45;2.20;;;18.30;99.90;;;;;;4994320;28;20461;-64
2022/05/16 07:12:14;;;;;;;11.90;2.67;;;18.50;99.90;;;;;;5007211;28;20045;-64
2022/05/16 07:14:40;;;;;;;13.70;2.60;;;18.40;99.90;;;;;;5011531;28;20080;-63
2022/05/16 07:17:06;;;;;;;5.88;2.35;;;18.40;99.90;;;;;;4997036;28;20084;-63
2022/05/16 07:19:35;;;;;;;5.88;2.25;;;18.50;99.90;;;;;;5012172;28;20050;-62
2022/05/16 07:22:12;;;;;;;9.02;2.40;;;18.50;99.90;;;;;;5011775;28;20046;-63
2022/05/16 07:24:43;;;;;;;7.28;2.70;;;18.70;99.90;;;;;;5008815;28;20074;-63
2022/05/16 07:29:53;;;;;;;7.35;2.75;;;18.90;99.90;;;;;;5011023;28;20488;-63
2022/05/16 07:32:18;;;;;;;5.03;2.03;;;19.20;99.90;;;;;;5009997;28;20555;-64
2022/05/16 07:34:44;;;;;;;5.68;2.55;;;19.00;99.90;;;;;;4993401;28;20127;-64
2022/05/16 07:37:10;;;;;;;14.88;4.20;;;18.80;99.90;;;;;;5009518;28;20053;-63
2022/05/16 07:39:36;;;;;;;8.60;2.50;;;18.90;99.90;;;;;;4988445;28;20036;-63
2022/05/16 07:42:04;;;;;;;12.63;3.30;;;19.00;99.90;;;;;;5009935;28;20382;-63
2022/05/16 07:44:29;;;;;;;7.38;2.70;;;19.10;99.90;;;;;;4993263;28;20073;-63
2022/05/16 07:46:55;;;;;;;8.00;3.10;;;19.20;99.90;;;;;;5008632;28;20046;-65
2022/05/16 07:49:21;;;;;;;5.88;2.33;;;19.20;99.90;;;;;;5008453;28;20042;-64
2022/05/16 07:51:47;;;;;;;12.43;2.92;;;19.40;99.90;;;;;;5008937;28;20040;-65
2022/05/16 07:54:12;;;;;;;8.25;2.53;;;19.50;99.90;;;;;;4991386;28;20037;-64
2022/05/16 07:56:39;;;;;;;9.15;2.45;;;19.60;99.90;;;;;;5006043;28;20041;-65
2022/05/16 07:59:04;;;;;;;9.60;3.20;;;19.70;99.90;;;;;;4989940;28;20042;-66
2022/05/16 08:01:30;;;;;;;12.07;2.75;;;19.70;99.90;;;;;;4993734;28;20424;-65
2022/05/16 08:03:56;;;;;;;8.48;3.03;;;19.80;99.90;;;;;;4994975;28;20038;-63
2022/05/16 08:06:22;;;;;;;9.60;2.75;;;20.10;99.90;;;;;;5000863;28;20050;-63
2022/05/16 08:11:31;;;;;;;7.07;2.47;;;19.70;99.90;;;;;;4981804;28;20491;-63
2022/05/16 08:13:57;;;;;;;11.85;2.30;;;18.60;99.90;;;;;;5001867;28;20045;-64
2022/05/16 08:16:22;;;;;;;9.20;3.47;;;19.60;99.90;;;;;;5000032;28;20046;-63
2022/05/16 08:18:48;;;;;;;10.45;2.45;;;19.80;99.90;;;;;;4996910;28;20041;-63
2022/05/16 08:21:14;;;;;;;9.15;2.05;;;19.70;99.90;;;;;;4981364;28;20109;-64
2022/05/16 08:23:40;;;;;;;9.80;2.85;;;19.90;99.90;;;;;;4980260;28;20037;-64
2022/05/16 08:26:05;;;;;;;11.25;2.88;;;20.00;99.90;;;;;;4979395;28;20046;-64
2022/05/16 08:28:32;;;;;;;7.47;2.70;;;20.10;99.90;;;;;;4984683;28;20407;-63
2022/05/16 08:30:58;;;;;;;6.03;2.10;;;20.10;99.90;;;;;;4999347;28;20050;-63
2022/05/16 08:33:23;;;;;;;10.18;2.17;;;20.30;99.90;;;;;;4981838;28;20034;-63
2022/05/16 08:39:52;;;;;;;4.88;2.05;;;20.40;99.90;;;;;;5004917;28;20072;-63
2022/05/16 08:41:28;;;;;;;9.50;2.33;;;20.30;99.90;;;;;;5008125;28;20046;-63
2022/05/16 08:43:57;;;;;;;16.30;4.18;;;20.50;99.90;;;;;;5006357;28;20451;-63
2022/05/16 08:46:46;;;;;;;13.18;2.25;;;20.50;99.90;;;;;;5003600;28;20049;-63
2022/05/16 08:49:37;;;;;;;19.23;3.35;;;20.80;99.90;;;;;;5006227;28;20078;-63
2022/05/16 08:52:22;;;;;;;7.38;2.10;;;20.90;99.90;;;;;;5009181;28;20061;-64
2022/05/16 08:55:01;;;;;;;10.80;2.85;;;21.10;99.90;;;;;;5006812;28;20041;-63
2022/05/16 08:57:45;;;;;;;16.45;4.63;;;21.60;99.90;;;;;;4991980;28;20049;-64
2022/05/16 09:00:37;;;;;;;7.72;2.78;;;21.30;99.90;;;;;;4987939;28;20049;-64
2022/05/16 09:03:10;;;;;;;10.73;2.28;;;21.50;99.90;;;;;;5010087;28;20034;-67
2022/05/16 09:05:40;;;;;;;8.38;2.10;;;21.70;99.90;;;;;;5004947;28;20057;-66
2022/05/16 09:08:10;;;;;;;11.93;2.67;;;21.90;99.90;;;;;;4989351;28;20053;-66
2022/05/16 09:10:36;;;;;;;7.55;1.90;;;21.90;99.90;;;;;;4989178;28;20042;-65
2022/05/16 09:13:07;;;;;;;7.15;2.55;;;22.10;99.90;;;;;;5009653;28;20480;-64
2022/05/16 09:15:55;;;;;;;12.75;2.50;;;23.80;99.90;;;;;;4987951;28;20407;-65
2022/05/16 09:18:49;;;;;;;6.95;2.50;;;21.70;99.90;;;;;;5006476;28;20041;-64
2022/05/16 09:21:37;;;;;;;7.50;2.00;;;22.10;99.90;;;;;;5006804;28;20050;-64
2022/05/16 09:24:11;;;;;;;8.27;2.83;;;22.10;99.90;;;;;;4991706;28;20049;-65
2022/05/16 09:26:52;;;;;;;7.85;2.97;;;22.20;99.90;;;;;;5006697;28;20046;-65
2022/05/16 09:29:28;;;;;;;15.65;3.28;;;22.30;99.90;;;;;;5008255;28;20504;-64
2022/05/16 09:32:07;;;;;;;8.82;2.38;;;22.50;99.90;;;;;;5007974;28;20060;-63
2022/05/16 09:34:33;;;;;;;7.88;2.15;;;22.60;99.90;;;;;;5005947;28;20049;-64
2022/05/16 09:36:59;;;;;;;5.72;2.35;;;22.80;99.90;;;;;;4999017;28;20404;-62
2022/05/16 09:39:31;;;;;;;39.38;5.95;;;22.70;99.90;;;;;;4994982;28;20049;-62
2022/05/16 09:42:12;;;;;;;8.20;2.03;;;22.80;99.90;;;;;;4998479;28;20085;-61
2022/05/16 09:44:45;;;;;;;7.20;2.42;;;23.00;99.90;;;;;;4997467;28;20069;-64
2022/05/16 09:47:21;;;;;;;8.23;1.85;;;22.80;99.90;;;;;;4998657;28;20030;-62
2022/05/16 09:50:02;;;;;;;17.23;2.58;;;23.10;99.90;;;;;;5001568;28;20042;-63
2022/05/16 09:52:29;;;;;;;13.23;3.72;;;23.10;99.90;;;;;;5000067;28;20042;-63
2022/05/16 09:55:07;;;;;;;6.35;1.70;;;22.90;99.90;;;;;;5000597;28;20929;-64
2022/05/16 09:58:19;;;;;;;13.75;2.38;;;23.10;99.90;;;;;;4985657;28;20042;-66
2022/05/16 10:01:08;;;;;;;13.15;2.65;;;23.10;99.90;;;;;;5004232;28;20038;-64
2022/05/16 10:03:47;;;;;;;8.98;2.90;;;22.90;99.90;;;;;;5007456;28;20065;-66
2022/05/16 10:06:35;;;;;;;8.68;2.70;;;22.90;99.90;;;;;;5008100;28;20049;-64
2022/05/16 10:09:08;;;;;;;8.02;2.53;;;22.90;99.90;;;;;;5007966;28;20041;-63
2022/05/16 10:11:36;;;;;;;19.13;3.38;;;22.80;99.90;;;;;;5004927;28;20045;-62
2022/05/16 10:14:03;;;;;;;10.70;2.78;;;22.80;99.90;;;;;;5009213;28;20061;-63
2022/05/16 10:16:31;;;;;;;8.73;2.67;;;22.80;99.90;;;;;;5009974;28;20148;-64
2022/05/16 10:19:18;;;;;;;7.03;2.47;;;22.70;99.90;;;;;;5011800;28;20033;-61
2022/05/16 10:22:16;;;;;;;9.32;2.85;;;22.80;99.90;;;;;;5006220;28;20030;-63
2022/05/16 10:24:50;;;;;;;8.43;2.78;;;22.50;99.90;;;;;;4995365;28;20049;-63
2022/05/16 10:27:20;;;;;;;8.50;2.40;;;22.40;99.90;;;;;;4990001;28;20049;-63
2022/05/16 10:29:51;;;;;;;7.82;2.40;;;22.60;99.90;;;;;;5003062;28;20050;-64
2022/05/16 10:35:31;;;;;;;7.40;2.28;;;22.60;99.90;;;;;;4991255;28;20053;-63
2022/05/16 10:38:10;;;;;;;8.23;2.50;;;22.70;99.90;;;;;;5004645;28;20050;-63
2022/05/16 10:40:41;;;;;;;24.38;3.08;;;22.60;99.90;;;;;;5010097;28;20396;-63
2022/05/16 10:43:34;;;;;;;11.52;2.42;;;22.50;99.90;;;;;;5001060;28;20045;-63
2022/05/16 10:46:10;;;;;;;8.18;2.67;;;22.30;99.90;;;;;;5002138;28;20042;-65
2022/05/16 10:48:59;;;;;;;7.35;2.00;;;22.30;99.90;;;;;;5001597;28;20476;-64
2022/05/16 10:51:31;;;;;;;6.75;2.22;;;22.30;99.90;;;;;;5003119;28;20135;-63
2022/05/16 10:54:15;;;;;;;69.65;6.72;;;22.30;99.90;;;;;;4999597;28;20470;-63
2022/05/16 10:57:04;;;;;;;50.60;4.68;;;22.20;99.90;;;;;;4988688;28;20030;-63
2022/05/16 10:59:39;;;;;;;9.23;2.63;;;22.10;99.90;;;;;;4983716;28;20492;-63
2022/05/16 11:02:10;;;;;;;;;;;22.40;99.90;;;;;;5012444;28;20042;-63
2022/05/16 11:04:49;;;;;;;10.30;3.25;;;22.10;99.90;;;;;;5009510;28;19921;-63
2022/05/16 11:07:52;;;;;;;116.30;33.45;;;22.00;99.90;;;;;;4990244;28;20042;-63
2022/05/16 11:10:26;;;;;;;7.03;3.03;;;22.40;99.90;;;;;;4989512;28;20510;-64
2022/05/16 11:13:25;;;;;;;10.27;3.42;;;22.30;99.90;;;;;;5009825;28;20033;-63
2022/05/16 11:16:03;;;;;;;14.55;3.13;;;22.00;99.90;;;;;;5006998;28;20057;-62
2022/05/16 11:18:42;;;;;;;15.07;3.20;;;22.10;99.90;;;;;;5010835;28;20160;-63
2022/05/16 11:21:37;;;;;;;13.50;3.45;;;22.10;99.90;;;;;;5002656;28;20040;-64
2022/05/16 11:24:21;;;;;;;11.95;3.50;;;22.30;99.90;;;;;;5003297;28;20488;-64
2022/05/16 11:26:54;;;;;;;11.55;3.70;;;22.00;99.90;;;;;;5000888;28;20571;-64
2022/05/16 11:29:39;;;;;;;11.67;3.10;;;22.30;99.90;;;;;;5001514;28;20045;-63
2022/05/16 11:32:40;;;;;;;10.10;3.20;;;22.40;99.90;;;;;;5001260;28;20037;-63
2022/05/16 11:35:21;;;;;;;12.10;3.30;;;22.30;99.90;;;;;;5010004;28;20381;-64
2022/05/16 11:37:56;;;;;;;8.45;3.55;;;22.20;99.90;;;;;;5008407;28;20034;-62
2022/05/16 11:40:39;;;;;;;13.02;4.30;;;22.30;99.90;;;;;;5010559;28;20042;-63
2022/05/16 11:43:27;;;;;;;13.68;5.55;;;22.30;99.90;;;;;;5010355;28;20069;-64
2022/05/16 11:46:18;;;;;;;20.38;7.03;;;22.50;99.90;;;;;;5009263;28;20056;-63
2022/05/16 11:48:43;;;;;;;12.32;5.13;;;22.30;99.90;;;;;;4988617;28;20046;-63
2022/05/16 11:51:28;;;;;;;40.22;13.80;;;22.10;99.90;;;;;;5010456;28;20123;-62
2022/05/16 11:54:01;;;;;;;30.88;11.50;;;22.30;99.90;;;;;;5009155;28;20062;-63
2022/05/16 12:02:27;;;;;;;32.28;12.68;;;22.40;99.90;;;;;;5003484;28;20042;-63
2022/05/16 12:05:00;;;;;;;13.05;4.30;;;22.10;99.90;;;;;;5009256;28;20049;-64
2022/05/16 12:07:35;;;;;;;7.20;3.05;;;22.70;99.90;;;;;;5006381;28;20054;-63
2022/05/16 12:10:16;;;;;;;8.70;3.35;;;22.60;99.90;;;;;;5000976;28;20058;-64
2022/05/16 12:12:47;;;;;;;9.07;3.10;;;22.80;99.90;;;;;;5000011;28;20540;-65
2022/05/16 12:15:16;;;;;;;6.55;3.03;;;22.90;99.90;;;;;;5002096;28;20133;-64
2022/05/16 12:18:28;;;;;;;8.35;3.17;;;23.00;99.90;;;;;;4998713;28;20050;-63
2022/05/16 12:21:06;;;;;;;8.15;3.28;;;22.90;99.90;;;;;;5001312;28;20044;-63
2022/05/16 12:23:49;;;;;;;11.23;3.45;;;23.10;99.90;;;;;;4998107;28;20047;-63
2022/05/16 12:26:30;;;;;;;8.70;3.72;;;23.10;99.90;;;;;;5003239;28;20045;-63
2022/05/16 12:29:11;;;;;;;9.45;4.03;;;23.30;99.90;;;;;;5007279;28;20049;-63
2022/05/16 12:31:49;;;;;;;8.55;3.22;;;23.20;99.90;;;;;;5001078;28;20133;-67
2022/05/16 12:34:33;;;;;;;8.10;3.53;;;23.20;99.90;;;;;;4989586;28;20038;-63
2022/05/16 12:37:19;;;;;;;10.70;3.45;;;23.50;99.90;;;;;;4989831;28;20570;-63
2022/05/16 12:40:15;;;;;;;9.25;3.70;;;23.20;99.90;;;;;;4995688;28;20041;-63
2022/05/16 12:43:14;;;;;;;12.57;4.18;;;23.40;99.90;;;;;;4999385;28;20041;-63
2022/05/16 12:45:55;;;;;;;8.90;4.53;;;23.40;99.90;;;;;;4989269;28;20117;-64
2022/05/16 12:48:55;;;;;;;9.05;4.13;;;23.60;99.90;;;;;;5008097;28;20511;-63
2022/05/16 12:51:56;;;;;;;10.73;5.70;;;23.30;99.90;;;;;;5006129;28;20108;-63
2022/05/16 12:54:46;;;;;;;8.95;6.10;;;23.60;99.90;;;;;;4989376;28;20380;-64
2022/05/16 12:57:21;;;;;;;7.60;4.80;;;23.30;99.90;;;;;;5009204;28;20053;-65
2022/05/16 13:00:08;;;;;;;10.25;5.32;;;23.00;99.90;;;;;;4984662;28;20077;-65
2022/05/16 13:02:44;;;;;;;9.73;5.15;;;23.10;99.90;;;;;;4989457;28;20123;-65
2022/05/16 13:05:47;;;;;;;11.50;6.25;;;23.20;99.90;;;;;;4985128;28;20054;-66
2022/05/16 13:08:47;;;;;;;12.63;7.70;;;23.30;99.90;;;;;;5005027;28;20595;-66
2022/05/16 13:11:18;;;;;;;14.63;9.43;;;23.60;99.90;;;;;;4947810;28;20054;-65
2022/05/16 13:13:58;;;;;;;17.80;9.77;;;23.30;99.90;;;;;;4985907;28;20462;-65
2022/05/16 13:16:30;;;;;;;16.90;10.02;;;23.30;99.90;;;;;;5008853;28;20516;-65
2022/05/16 13:19:13;;;;;;;23.33;10.38;;;23.30;99.90;;;;;;5009438;28;20129;-65
2022/05/16 13:21:49;;;;;;;17.85;10.02;;;23.50;99.90;;;;;;5009026;28;20042;-66
2022/05/16 13:24:18;;;;;;;18.45;10.95;;;23.30;99.90;;;;;;5006119;28;20045;-65
2022/05/16 13:29:34;;;;;;;15.68;10.40;;;23.20;99.90;;;;;;5009549;28;20420;-65
2022/05/16 13:32:18;;;;;;;21.42;10.98;;;23.50;99.90;;;;;;5008100;28;20557;-65
2022/05/16 13:34:55;;;;;;;16.98;10.13;;;23.20;99.90;;;;;;5006434;28;20049;-67
2022/05/16 13:37:39;;;;;;;19.75;10.95;;;23.60;99.90;;;;;;5005706;28;20034;-66
2022/05/16 13:40:08;;;;;;;17.90;11.30;;;23.60;99.90;;;;;;4974458;28;20034;-64
2022/05/16 13:42:37;;;;;;;16.80;11.35;;;23.50;99.90;;;;;;5007256;28;20073;-65
2022/05/16 13:45:05;;;;;;;18.27;10.88;;;23.60;99.90;;;;;;5007674;28;20041;-65